Time;durP1;ratioP1;P1;durP2;ratioP2;P2;SDS_P1;SDS_P2;PMS_P1;PMS_P2;Temp;Humidity;BMP_temperature;BMP_pressure;BME280_temperature;BME280_humidity;BME280_pressure;Samples;Min_cycle;Max_cycle;Signal;HPM_P1;HPM_P2
2020/12/03 00:01:24;;;;;;;48.20;26.48;;;;;;;;;;5110855;28;20361;-84
2020/12/03 00:03:54;;;;;;;50.90;26.40;;;;;;;;;;5108630;28;20052;-84
2020/12/03 00:06:21;;;;;;;46.28;24.25;;;;;;;;;;5103989;28;20079;-83
2020/12/03 00:08:55;;;;;;;46.92;25.88;;;;;;;;;;5108520;28;20254;-83
2020/12/03 00:11:24;;;;;;;46.45;24.98;;;;;;;;;;5106082;28;20036;-84
2020/12/03 00:13:50;;;;;;;47.08;24.77;;;;;;;;;;5106411;28;20143;-83
2020/12/03 00:16:19;;;;;;;48.78;24.67;;;;;;;;;;5104276;28;20047;-83
2020/12/03 00:18:48;;;;;;;45.38;25.30;;;;;;;;;;5105893;28;20131;-83
2020/12/03 00:21:14;;;;;;;51.85;26.08;;;;;;;;;;5127700;28;20031;-83
2020/12/03 00:23:43;;;;;;;47.10;25.33;;;;;;;;;;5113978;28;20055;-84
2020/12/03 00:26:14;;;;;;;45.55;25.90;;;;;;;;;;5113222;28;20051;-84
2020/12/03 00:28:48;;;;;;;46.47;24.55;;;;;;;;;;5110681;28;20052;-83
2020/12/03 00:31:15;;;;;;;49.05;26.73;;;;;;;;;;5110802;28;20051;-84
2020/12/03 00:33:41;;;;;;;49.22;26.50;;;;;;;;;;5106737;28;20130;-84
2020/12/03 00:36:21;;;;;;;51.65;26.08;;;;;;;;;;5114265;28;20163;-83
2020/12/03 00:38:51;;;;;;;45.33;24.92;;;;;;;;;;5114644;28;20058;-83
2020/12/03 00:41:18;;;;;;;44.85;24.63;;;;;;;;;;5115425;28;20054;-84
2020/12/03 00:43:49;;;;;;;49.03;26.27;;;;;;;;;;5122832;27;20050;-84
2020/12/03 00:46:17;;;;;;;45.47;25.83;;;;;;;;;;5130342;27;20044;-83
2020/12/03 00:48:47;;;;;;;51.97;27.00;;;;;;;;;;5126251;27;20413;-83
2020/12/03 00:51:13;;;;;;;49.78;27.48;;;;;;;;;;5115463;27;20065;-83
2020/12/03 00:53:51;;;;;;;46.60;26.35;;;;;;;;;;5113624;27;20047;-84
2020/12/03 00:56:21;;;;;;;47.88;24.75;;;;;;;;;;5130395;27;20105;-83
2020/12/03 00:58:53;;;;;;;48.92;25.40;;;;;;;;;;5118167;27;20127;-83
2020/12/03 01:01:22;;;;;;;50.45;27.02;;;;;;;;;;5130879;27;20051;-83
2020/12/03 01:03:50;;;;;;;51.85;26.20;;;;;;;;;;5110776;27;20075;-83
2020/12/03 01:06:18;;;;;;;45.75;25.52;;;;;;;;;;5113696;27;20061;-83
2020/12/03 01:08:44;;;;;;;45.67;24.17;;;;;;;;;;5129854;27;20054;-84
2020/12/03 01:11:18;;;;;;;49.65;27.05;;;;;;;;;;5128896;27;20076;-83
2020/12/03 01:13:51;;;;;;;46.03;24.80;;;;;;;;;;5119892;27;20058;-83
2020/12/03 01:16:18;;;;;;;49.72;26.58;;;;;;;;;;5134238;27;20435;-83
2020/12/03 01:18:52;;;;;;;45.40;26.73;;;;;;;;;;5114165;27;20047;-81
2020/12/03 01:21:22;;;;;;;53.25;25.42;;;;;;;;;;5122281;27;20039;-81
2020/12/03 01:23:50;;;;;;;47.75;24.13;;;;;;;;;;5148977;27;20051;-81
2020/12/03 01:26:20;;;;;;;49.35;26.33;;;;;;;;;;5128895;27;20039;-82
2020/12/03 01:28:50;;;;;;;51.63;27.02;;;;;;;;;;5145945;27;20092;-81
2020/12/03 01:31:18;;;;;;;47.03;25.23;;;;;;;;;;5145432;27;20070;-82
2020/12/03 01:33:50;;;;;;;48.70;26.90;;;;;;;;;;5127714;27;20066;-82
2020/12/03 01:36:22;;;;;;;50.72;27.33;;;;;;;;;;5149623;27;20092;-82
2020/12/03 01:38:54;;;;;;;48.10;25.30;;;;;;;;;;5126442;28;20031;-81
2020/12/03 01:41:27;;;;;;;48.58;24.63;;;;;;;;;;5115205;28;20086;-81
2020/12/03 01:43:53;;;;;;;54.78;26.17;;;;;;;;;;5136657;27;20032;-81
2020/12/03 01:46:20;;;;;;;48.75;26.50;;;;;;;;;;5119562;28;20265;-81
2020/12/03 01:49:00;;;;;;;47.78;25.80;;;;;;;;;;5138591;27;20059;-82
2020/12/03 01:51:41;;;;;;;49.35;27.05;;;;;;;;;;5147695;27;20051;-81
2020/12/03 01:54:13;;;;;;;44.33;23.83;;;;;;;;;;5116717;28;20063;-82
2020/12/03 01:57:01;;;;;;;51.70;25.63;;;;;;;;;;5107983;28;20442;-81
2020/12/03 01:59:31;;;;;;;47.35;26.42;;;;;;;;;;5124828;27;20052;-82
2020/12/03 02:01:58;;;;;;;51.63;26.45;;;;;;;;;;5116620;28;20035;-81
2020/12/03 02:04:27;;;;;;;48.63;26.38;;;;;;;;;;5124840;28;20061;-81
2020/12/03 02:07:05;;;;;;;51.47;28.15;;;;;;;;;;5108923;28;20051;-82
2020/12/03 02:09:31;;;;;;;53.33;27.70;;;;;;;;;;5140399;27;20114;-82
2020/12/03 02:11:57;;;;;;;51.92;26.75;;;;;;;;;;5119747;28;20150;-82
2020/12/03 02:14:24;;;;;;;49.33;26.58;;;;;;;;;;5131609;27;20058;-82
2020/12/03 02:16:53;;;;;;;52.05;26.85;;;;;;;;;;5127058;27;20055;-82
2020/12/03 02:19:26;;;;;;;51.47;26.95;;;;;;;;;;5132618;27;20063;-82
2020/12/03 02:22:13;;;;;;;50.08;26.98;;;;;;;;;;5124769;27;20431;-82
2020/12/03 02:24:40;;;;;;;55.65;27.38;;;;;;;;;;5105373;28;20166;-82
2020/12/03 02:27:28;;;;;;;54.53;28.63;;;;;;;;;;5105207;28;20138;-82
2020/12/03 02:29:54;;;;;;;51.78;27.67;;;;;;;;;;5104863;28;20055;-82
2020/12/03 02:32:20;;;;;;;54.42;27.38;;;;;;;;;;5108015;28;20062;-82
2020/12/03 02:34:47;;;;;;;51.03;27.00;;;;;;;;;;5109193;27;20097;-82
2020/12/03 02:37:16;;;;;;;52.28;28.27;;;;;;;;;;5127367;27;20130;-82
2020/12/03 02:39:43;;;;;;;52.95;27.75;;;;;;;;;;5134317;27;20110;-81
2020/12/03 02:42:15;;;;;;;59.60;28.73;;;;;;;;;;5126211;27;20047;-82
2020/12/03 02:44:51;;;;;;;60.33;28.98;;;;;;;;;;5124662;27;20112;-82
2020/12/03 02:47:19;;;;;;;64.65;29.10;;;;;;;;;;5122727;27;20055;-82
2020/12/03 02:49:46;;;;;;;59.05;29.20;;;;;;;;;;5130867;28;20038;-82
2020/12/03 02:52:15;;;;;;;54.13;27.63;;;;;;;;;;5118015;28;20039;-83
2020/12/03 02:54:42;;;;;;;57.28;28.05;;;;;;;;;;5142729;27;20043;-83
2020/12/03 02:57:09;;;;;;;56.33;27.25;;;;;;;;;;5149130;27;20043;-82
2020/12/03 02:59:36;;;;;;;53.72;27.05;;;;;;;;;;5118803;28;20134;-82
2020/12/03 03:02:03;;;;;;;58.03;28.10;;;;;;;;;;5107155;28;20058;-82
2020/12/03 03:04:31;;;;;;;57.28;29.10;;;;;;;;;;5123688;27;20051;-82
2020/12/03 03:06:57;;;;;;;58.42;29.33;;;;;;;;;;5133365;27;20083;-82
2020/12/03 03:09:30;;;;;;;61.53;30.35;;;;;;;;;;5121244;28;20104;-82
2020/12/03 03:11:56;;;;;;;65.13;30.88;;;;;;;;;;5124667;28;20271;-82
2020/12/03 03:14:23;;;;;;;61.42;29.33;;;;;;;;;;5123618;28;20302;-83
2020/12/03 03:16:52;;;;;;;61.08;30.27;;;;;;;;;;5114902;28;20055;-83
2020/12/03 03:19:18;;;;;;;59.08;30.63;;;;;;;;;;5128215;27;20058;-83
2020/12/03 03:21:45;;;;;;;60.40;29.40;;;;;;;;;;5122121;27;20057;-83
2020/12/03 03:24:11;;;;;;;64.72;29.48;;;;;;;;;;5139949;27;20051;-83
2020/12/03 03:26:38;;;;;;;68.47;31.63;;;;;;;;;;5136128;27;20047;-83
2020/12/03 03:29:05;;;;;;;68.20;29.48;;;;;;;;;;5107416;28;20047;-83
2020/12/03 03:31:31;;;;;;;66.60;30.70;;;;;;;;;;5121022;27;20047;-83
2020/12/03 03:33:58;;;;;;;67.47;32.35;;;;;;;;;;5119867;27;20342;-83
2020/12/03 03:36:32;;;;;;;60.45;29.70;;;;;;;;;;5139149;27;20047;-83
2020/12/03 03:38:58;;;;;;;67.28;31.38;;;;;;;;;;5129459;27;20043;-83
2020/12/03 03:41:34;;;;;;;63.83;31.35;;;;;;;;;;5101260;28;20108;-83
2020/12/03 03:44:00;;;;;;;68.63;32.28;;;;;;;;;;5117152;28;20146;-82
2020/12/03 03:46:29;;;;;;;64.75;31.92;;;;;;;;;;5117846;28;20063;-83
2020/12/03 03:49:03;;;;;;;65.80;30.63;;;;;;;;;;5098126;28;20048;-83
2020/12/03 03:51:30;;;;;;;67.85;31.88;;;;;;;;;;5097868;28;20072;-83
2020/12/03 03:54:11;;;;;;;62.40;29.60;;;;;;;;;;5097393;28;20052;-83
2020/12/03 03:56:37;;;;;;;60.80;29.17;;;;;;;;;;5097302;28;20063;-83
2020/12/03 03:59:03;;;;;;;64.63;29.95;;;;;;;;;;5096794;28;20047;-83
2020/12/03 04:01:30;;;;;;;62.45;30.33;;;;;;;;;;5098715;28;20056;-83
2020/12/03 04:03:58;;;;;;;66.57;32.78;;;;;;;;;;5098409;28;20054;-83
2020/12/03 04:06:32;;;;;;;65.28;31.77;;;;;;;;;;5115632;28;20048;-83
2020/12/03 04:08:58;;;;;;;66.43;30.63;;;;;;;;;;5120468;28;20074;-83
2020/12/03 04:11:32;;;;;;;57.80;29.55;;;;;;;;;;5120379;28;20086;-83
2020/12/03 04:13:59;;;;;;;65.85;30.85;;;;;;;;;;5122627;28;20052;-83
2020/12/03 04:16:29;;;;;;;60.65;29.42;;;;;;;;;;5134555;28;20085;-83
2020/12/03 04:18:57;;;;;;;64.05;31.25;;;;;;;;;;5138558;28;20219;-84
2020/12/03 04:21:37;;;;;;;57.92;28.55;;;;;;;;;;5134138;28;20048;-83
2020/12/03 04:24:04;;;;;;;61.03;31.17;;;;;;;;;;5114581;28;20048;-83
2020/12/03 04:26:30;;;;;;;59.10;30.50;;;;;;;;;;5103892;28;20052;-82
2020/12/03 04:29:00;;;;;;;65.85;30.50;;;;;;;;;;5119664;28;20055;-82
2020/12/03 04:31:33;;;;;;;59.28;29.27;;;;;;;;;;5118926;28;20048;-82
2020/12/03 04:34:01;;;;;;;59.70;29.27;;;;;;;;;;5121158;28;20187;-82
2020/12/03 04:36:29;;;;;;;57.95;28.17;;;;;;;;;;5127104;28;20051;-82
2020/12/03 04:39:15;;;;;;;55.47;28.02;;;;;;;;;;5110754;28;20048;-82
2020/12/03 04:41:41;;;;;;;63.45;29.23;;;;;;;;;;5106538;28;20407;-82
2020/12/03 04:44:14;;;;;;;64.05;28.90;;;;;;;;;;5128729;27;20055;-82
2020/12/03 04:46:44;;;;;;;55.35;28.67;;;;;;;;;;5117663;28;20052;-81
2020/12/03 04:49:23;;;;;;;59.83;30.38;;;;;;;;;;5092951;28;20270;-82
2020/12/03 04:52:09;;;;;;;55.78;26.90;;;;;;;;;;5143459;27;20078;-82
2020/12/03 04:54:47;;;;;;;61.20;29.13;;;;;;;;;;5134918;28;20035;-82
2020/12/03 04:57:32;;;;;;;64.38;30.75;;;;;;;;;;5142364;27;20072;-82
2020/12/03 05:00:21;;;;;;;60.97;30.08;;;;;;;;;;5123811;28;20493;-82
2020/12/03 05:02:51;;;;;;;63.28;30.23;;;;;;;;;;5111192;28;20051;-82
2020/12/03 05:05:21;;;;;;;57.50;29.10;;;;;;;;;;5112315;27;20039;-82
2020/12/03 05:08:04;;;;;;;56.28;27.40;;;;;;;;;;5153545;27;20035;-83
2020/12/03 05:10:42;;;;;;;63.17;29.40;;;;;;;;;;5130899;27;20375;-83
2020/12/03 05:13:25;;;;;;;58.53;29.73;;;;;;;;;;5141113;27;20449;-83
2020/12/03 05:16:11;;;;;;;59.38;29.17;;;;;;;;;;5118699;28;20094;-83
2020/12/03 05:18:55;;;;;;;58.88;28.15;;;;;;;;;;5122753;28;20047;-83
2020/12/03 05:21:28;;;;;;;59.60;28.50;;;;;;;;;;5119890;27;20493;-82
2020/12/03 05:24:04;;;;;;;57.67;29.83;;;;;;;;;;5122239;27;20070;-83
2020/12/03 05:26:37;;;;;;;56.90;27.73;;;;;;;;;;5122557;27;20499;-81
2020/12/03 05:29:21;;;;;;;58.00;28.00;;;;;;;;;;5144576;27;20074;-83
2020/12/03 05:31:47;;;;;;;56.47;27.92;;;;;;;;;;5135942;27;20107;-83
2020/12/03 05:34:15;;;;;;;56.22;28.30;;;;;;;;;;5121401;27;20101;-83
2020/12/03 05:36:56;;;;;;;51.75;26.92;;;;;;;;;;5130247;27;20105;-83
2020/12/03 05:39:25;;;;;;;58.13;29.13;;;;;;;;;;5123730;28;20107;-83
2020/12/03 05:41:54;;;;;;;55.92;28.48;;;;;;;;;;5131585;27;20058;-83
2020/12/03 05:44:26;;;;;;;56.50;27.60;;;;;;;;;;5152860;27;20160;-83
2020/12/03 05:46:54;;;;;;;56.63;29.10;;;;;;;;;;5123918;27;20072;-81
2020/12/03 05:49:23;;;;;;;55.53;28.17;;;;;;;;;;5112266;27;20093;-81
2020/12/03 05:52:23;;;;;;;56.85;27.23;;;;;;;;;;5105162;28;20047;-81
2020/12/03 05:54:57;;;;;;;52.38;27.42;;;;;;;;;;5064745;28;20211;-81
2020/12/03 05:57:25;;;;;;;56.60;27.15;;;;;;;;;;5102567;28;20144;-81
2020/12/03 06:00:24;;;;;;;48.10;24.95;;;;;;;;;;5106208;28;20112;-81
2020/12/03 06:02:58;;;;;;;47.35;24.58;;;;;;;;;;5042763;28;20049;-81
2020/12/03 06:05:44;;;;;;;53.97;26.98;;;;;;;;;;5081344;28;20101;-81
2020/12/03 06:08:31;;;;;;;51.78;26.13;;;;;;;;;;5122548;27;20051;-81
2020/12/03 06:11:03;;;;;;;53.40;27.93;;;;;;;;;;5136378;27;20138;-82
2020/12/03 06:13:48;;;;;;;55.15;26.58;;;;;;;;;;5114102;28;20065;-82
2020/12/03 06:16:46;;;;;;;52.65;26.83;;;;;;;;;;5122779;27;20047;-82
2020/12/03 06:19:17;;;;;;;53.70;27.75;;;;;;;;;;5110772;27;20048;-82
2020/12/03 06:21:52;;;;;;;54.00;26.38;;;;;;;;;;5108039;27;20066;-82
2020/12/03 06:24:54;;;;;;;53.42;26.20;;;;;;;;;;5118213;27;20054;-82
2020/12/03 06:27:21;;;;;;;57.75;27.98;;;;;;;;;;5014771;28;20103;-82
2020/12/03 06:29:49;;;;;;;55.15;27.20;;;;;;;;;;5116289;27;20040;-82
2020/12/03 06:32:16;;;;;;;52.05;27.48;;;;;;;;;;5119811;27;20090;-81
2020/12/03 06:35:00;;;;;;;59.70;28.23;;;;;;;;;;5129965;27;20426;-82
2020/12/03 06:37:30;;;;;;;54.03;26.23;;;;;;;;;;5115703;27;20184;-82
2020/12/03 06:40:05;;;;;;;47.72;24.77;;;;;;;;;;5106182;27;20039;-83
2020/12/03 06:42:45;;;;;;;53.07;26.63;;;;;;;;;;5125767;27;20043;-82
2020/12/03 06:45:53;;;;;;;53.05;25.90;;;;;;;;;;5115798;27;20222;-83
2020/12/03 06:48:38;;;;;;;54.53;27.58;;;;;;;;;;5094648;27;20415;-83
2020/12/03 06:51:23;;;;;;;49.55;25.88;;;;;;;;;;5094726;28;20119;-84
2020/12/03 06:54:00;;;;;;;52.85;26.05;;;;;;;;;;5116276;27;20051;-85
2020/12/03 06:56:45;;;;;;;51.95;25.70;;;;;;;;;;5092848;28;20103;-83
2020/12/03 06:59:30;;;;;;;51.60;25.98;;;;;;;;;;5108595;27;20260;-82
2020/12/03 07:02:12;;;;;;;53.03;26.63;;;;;;;;;;5094907;28;20146;-84
2020/12/03 07:04:51;;;;;;;56.05;26.80;;;;;;;;;;5124821;28;20039;-83
2020/12/03 07:07:21;;;;;;;55.67;26.80;;;;;;;;;;5116665;27;20104;-83
2020/12/03 07:10:09;;;;;;;46.67;25.02;;;;;;;;;;5113090;28;20050;-83
2020/12/03 07:12:49;;;;;;;55.35;26.98;;;;;;;;;;5121861;27;20081;-84
2020/12/03 07:15:35;;;;;;;50.97;25.63;;;;;;;;;;5103135;27;20063;-85
2020/12/03 07:18:03;;;;;;;55.50;27.00;;;;;;;;;;5133611;27;20429;-84
2020/12/03 07:20:46;;;;;;;55.67;27.20;;;;;;;;;;5106895;27;20047;-84
2020/12/03 07:23:22;;;;;;;51.67;25.70;;;;;;;;;;5133410;27;20244;-84
2020/12/03 07:25:49;;;;;;;52.08;27.05;;;;;;;;;;5101544;27;20058;-83
2020/12/03 07:28:23;;;;;;;49.60;25.48;;;;;;;;;;5114122;27;20504;-83
2020/12/03 07:30:52;;;;;;;50.17;25.15;;;;;;;;;;5121769;27;20047;-84
2020/12/03 07:33:28;;;;;;;57.30;25.52;;;;;;;;;;5136924;27;20050;-86
2020/12/03 07:36:13;;;;;;;53.63;25.42;;;;;;;;;;5126761;27;20104;-85
2020/12/03 07:39:06;;;;;;;50.63;25.95;;;;;;;;;;5112222;28;20110;-86
2020/12/03 07:41:51;;;;;;;58.88;28.75;;;;;;;;;;5135079;27;20047;-87
2020/12/03 07:44:24;;;;;;;55.53;26.55;;;;;;;;;;5117481;27;20051;-85
2020/12/03 07:46:52;;;;;;;49.95;25.42;;;;;;;;;;5098137;28;20051;-86
2020/12/03 07:49:37;;;;;;;57.53;28.65;;;;;;;;;;5099701;28;20069;-85
2020/12/03 07:52:18;;;;;;;52.88;25.60;;;;;;;;;;5121812;28;20039;-85
2020/12/03 07:54:46;;;;;;;54.72;26.42;;;;;;;;;;5112702;28;20035;-85
2020/12/03 07:57:31;;;;;;;51.85;26.80;;;;;;;;;;5111558;28;20061;-85
2020/12/03 08:00:32;;;;;;;50.92;26.58;;;;;;;;;;5124162;28;20039;-85
2020/12/03 08:03:04;;;;;;;51.13;25.08;;;;;;;;;;5110197;28;20058;-86
2020/12/03 08:05:39;;;;;;;49.47;24.83;;;;;;;;;;5103248;28;20043;-85
2020/12/03 08:08:26;;;;;;;51.03;25.40;;;;;;;;;;5119605;28;20040;-83
2020/12/03 08:10:55;;;;;;;55.42;27.90;;;;;;;;;;5094847;28;20048;-83
2020/12/03 08:13:37;;;;;;;48.47;24.65;;;;;;;;;;5110960;28;20457;-83
2020/12/03 08:16:12;;;;;;;50.05;27.65;;;;;;;;;;5108643;28;20047;-82
2020/12/03 08:18:57;;;;;;;47.10;25.23;;;;;;;;;;5101923;28;20050;-82
2020/12/03 08:21:35;;;;;;;51.47;24.17;;;;;;;;;;5119135;28;20096;-84
2020/12/03 08:24:29;;;;;;;49.22;24.67;;;;;;;;;;5115870;28;20042;-84
2020/12/03 08:27:05;;;;;;;50.35;25.27;;;;;;;;;;5115979;28;20390;-83
2020/12/03 08:29:52;;;;;;;49.00;24.02;;;;;;;;;;5111829;28;20109;-82
2020/12/03 08:32:26;;;;;;;53.20;25.73;;;;;;;;;;5120795;28;20039;-83
2020/12/03 08:34:58;;;;;;;45.72;23.23;;;;;;;;;;5138154;28;20046;-83
2020/12/03 08:37:25;;;;;;;45.33;24.90;;;;;;;;;;5134621;28;20124;-83
2020/12/03 08:39:57;;;;;;;45.40;22.75;;;;;;;;;;5110012;28;20050;-83
2020/12/03 08:42:25;;;;;;;43.88;23.67;;;;;;;;;;5112977;28;20111;-83
2020/12/03 08:44:53;;;;;;;46.92;24.05;;;;;;;;;;5125540;28;20055;-83
2020/12/03 08:47:36;;;;;;;47.40;23.95;;;;;;;;;;5111553;28;20050;-83
2020/12/03 08:50:17;;;;;;;54.30;25.05;;;;;;;;;;5110077;27;20040;-83
2020/12/03 08:52:45;;;;;;;45.47;24.23;;;;;;;;;;5123874;27;20050;-82
2020/12/03 08:55:12;;;;;;;45.95;23.05;;;;;;;;;;5125820;27;20136;-82
2020/12/03 08:57:43;;;;;;;43.60;23.40;;;;;;;;;;5121140;27;20048;-82
2020/12/03 09:00:14;;;;;;;44.22;22.80;;;;;;;;;;5101259;27;20047;-82
2020/12/03 09:02:41;;;;;;;44.05;23.30;;;;;;;;;;5112338;28;20309;-83
2020/12/03 09:05:13;;;;;;;53.15;24.27;;;;;;;;;;5108424;27;20078;-82
2020/12/03 09:07:46;;;;;;;46.20;23.50;;;;;;;;;;5105677;28;20044;-81
2020/12/03 09:10:15;;;;;;;42.15;22.38;;;;;;;;;;5104340;28;20046;-82
2020/12/03 09:12:46;;;;;;;47.05;24.20;;;;;;;;;;5117246;27;20109;-82
2020/12/03 09:15:15;;;;;;;45.10;22.98;;;;;;;;;;5115910;27;20058;-82
2020/12/03 09:17:59;;;;;;;51.13;24.10;;;;;;;;;;5119245;27;20124;-82
2020/12/03 09:20:40;;;;;;;49.17;23.90;;;;;;;;;;5130639;27;20067;-82
2020/12/03 09:23:12;;;;;;;49.38;24.23;;;;;;;;;;5114709;27;20047;-82
2020/12/03 09:25:38;;;;;;;44.42;22.65;;;;;;;;;;5114556;27;20047;-82
2020/12/03 09:28:04;;;;;;;43.78;21.77;;;;;;;;;;5106249;27;20053;-82
2020/12/03 09:30:34;;;;;;;50.47;23.38;;;;;;;;;;5119370;27;20122;-82
2020/12/03 09:33:09;;;;;;;45.72;21.90;;;;;;;;;;5127952;27;20096;-82
2020/12/03 09:35:39;;;;;;;44.05;22.40;;;;;;;;;;5122303;27;20320;-80
2020/12/03 09:38:08;;;;;;;45.40;21.58;;;;;;;;;;5110621;27;20073;-81
2020/12/03 09:40:43;;;;;;;47.95;22.23;;;;;;;;;;5124675;27;20047;-82
2020/12/03 09:43:09;;;;;;;41.35;21.55;;;;;;;;;;5106274;27;20532;-83
2020/12/03 09:46:05;;;;;;;46.13;22.27;;;;;;;;;;5105970;27;20073;-83
2020/12/03 09:48:33;;;;;;;39.20;20.90;;;;;;;;;;5122704;27;20104;-83
2020/12/03 09:51:03;;;;;;;40.85;20.00;;;;;;;;;;5108640;27;20317;-83
2020/12/03 09:53:31;;;;;;;41.63;22.40;;;;;;;;;;5106055;28;20071;-83
2020/12/03 09:56:00;;;;;;;44.20;21.55;;;;;;;;;;5118172;28;20265;-83
2020/12/03 09:58:26;;;;;;;44.50;21.83;;;;;;;;;;5138281;27;20136;-83
2020/12/03 10:00:54;;;;;;;43.20;21.27;;;;;;;;;;5136606;27;20047;-83
2020/12/03 10:03:47;;;;;;;39.25;20.65;;;;;;;;;;5104506;27;20047;-83
2020/12/03 10:06:19;;;;;;;36.60;21.13;;;;;;;;;;5098245;27;20353;-83
2020/12/03 10:08:55;;;;;;;40.00;22.20;;;;;;;;;;5127671;27;20401;-83
2020/12/03 10:11:46;;;;;;;44.55;22.27;;;;;;;;;;5122266;27;20282;-83
2020/12/03 10:14:31;;;;;;;39.28;21.17;;;;;;;;;;5110208;27;20074;-83
2020/12/03 10:17:04;;;;;;;35.97;20.38;;;;;;;;;;5104972;27;20123;-83
2020/12/03 10:19:36;;;;;;;39.72;20.98;;;;;;;;;;5104434;27;20043;-84
2020/12/03 10:22:03;;;;;;;37.60;20.60;;;;;;;;;;5117665;27;20510;-84
2020/12/03 10:24:51;;;;;;;38.42;19.65;;;;;;;;;;5106863;27;20038;-83
2020/12/03 10:27:44;;;;;;;32.97;19.50;;;;;;;;;;5126055;27;20400;-82
2020/12/03 10:30:20;;;;;;;37.65;19.50;;;;;;;;;;5089998;27;20126;-82
2020/12/03 10:32:49;;;;;;;34.08;19.48;;;;;;;;;;5124954;27;20039;-82
2020/12/03 10:35:15;;;;;;;36.08;21.25;;;;;;;;;;5126645;27;20049;-82
2020/12/03 10:37:46;;;;;;;40.75;20.80;;;;;;;;;;5122129;27;20226;-82
2020/12/03 10:40:20;;;;;;;35.42;19.42;;;;;;;;;;5119757;27;20053;-82
2020/12/03 10:43:16;;;;;;;38.78;21.13;;;;;;;;;;5125836;27;20039;-82
2020/12/03 10:45:50;;;;;;;36.95;19.25;;;;;;;;;;5080264;28;20067;-82
2020/12/03 10:48:19;;;;;;;33.42;19.13;;;;;;;;;;5077486;28;20093;-82
2020/12/03 10:50:46;;;;;;;35.90;19.23;;;;;;;;;;5094623;28;20048;-83
2020/12/03 10:53:26;;;;;;;35.00;19.55;;;;;;;;;;5093413;28;20170;-83
2020/12/03 10:55:58;;;;;;;35.17;18.00;;;;;;;;;;5098119;28;20075;-83
2020/12/03 10:58:39;;;;;;;30.27;17.63;;;;;;;;;;5091720;28;20044;-83
2020/12/03 11:01:07;;;;;;;38.08;20.02;;;;;;;;;;5093716;28;20135;-82
2020/12/03 11:03:37;;;;;;;34.75;19.42;;;;;;;;;;5091410;28;20052;-83
2020/12/03 11:06:04;;;;;;;37.47;19.50;;;;;;;;;;5091408;28;20416;-82
2020/12/03 11:08:34;;;;;;;34.97;19.48;;;;;;;;;;5083670;28;20048;-82
2020/12/03 11:11:00;;;;;;;38.58;18.92;;;;;;;;;;5083666;28;20074;-83
2020/12/03 11:13:27;;;;;;;35.35;19.02;;;;;;;;;;5077589;28;20223;-82
2020/12/03 11:15:56;;;;;;;37.42;20.55;;;;;;;;;;5076595;28;20143;-81
2020/12/03 11:18:23;;;;;;;33.10;20.10;;;;;;;;;;5074312;28;20064;-81
2020/12/03 11:20:59;;;;;;;38.10;20.77;;;;;;;;;;5106680;28;20070;-81
2020/12/03 11:23:30;;;;;;;37.00;19.52;;;;;;;;;;5107805;28;20044;-82
2020/12/03 11:26:03;;;;;;;35.17;19.15;;;;;;;;;;5090459;28;20151;-83
2020/12/03 11:28:31;;;;;;;32.50;18.58;;;;;;;;;;5086977;28;20044;-83
2020/12/03 11:31:02;;;;;;;36.15;18.08;;;;;;;;;;5081345;28;20044;-81
2020/12/03 11:33:30;;;;;;;37.55;18.35;;;;;;;;;;5083781;28;20043;-81
2020/12/03 11:36:04;;;;;;;38.55;19.05;;;;;;;;;;5081424;28;20048;-82
2020/12/03 11:38:34;;;;;;;33.28;18.95;;;;;;;;;;5082215;28;20047;-82
2020/12/03 11:41:15;;;;;;;36.33;18.95;;;;;;;;;;5081786;28;20280;-82
2020/12/03 11:49:06;;;;;;;31.63;17.73;;;;;;;;;;5129047;28;20051;-82
2020/12/03 11:51:34;;;;;;;34.05;18.77;;;;;;;;;;5124498;28;20035;-82
2020/12/03 11:54:06;;;;;;;36.13;18.63;;;;;;;;;;5121886;28;20043;-82
2020/12/03 11:56:34;;;;;;;36.03;18.58;;;;;;;;;;5106127;28;20056;-82
2020/12/03 11:59:19;;;;;;;35.42;16.83;;;;;;;;;;5123782;28;20043;-81
2020/12/03 12:01:53;;;;;;;32.58;17.60;;;;;;;;;;5111112;28;20035;-82
2020/12/03 12:04:36;;;;;;;35.45;17.25;;;;;;;;;;5123757;28;20059;-81
2020/12/03 12:12:06;;;;;;;33.08;17.92;;;;;;;;;;5121311;28;20116;-83
2020/12/03 12:14:32;;;;;;;32.05;17.27;;;;;;;;;;5103551;28;20055;-82
2020/12/03 12:17:03;;;;;;;33.00;16.70;;;;;;;;;;5101886;28;20052;-83
2020/12/03 12:19:36;;;;;;;34.30;17.02;;;;;;;;;;5106595;28;20393;-83
2020/12/03 12:22:04;;;;;;;30.05;17.55;;;;;;;;;;5120652;28;20059;-83
2020/12/03 12:24:36;;;;;;;35.40;17.95;;;;;;;;;;5122687;28;20456;-83
2020/12/03 12:27:05;;;;;;;29.60;17.25;;;;;;;;;;5128871;27;20051;-82
2020/12/03 12:29:42;;;;;;;33.72;17.80;;;;;;;;;;5133578;27;20128;-82
2020/12/03 12:32:09;;;;;;;28.33;16.30;;;;;;;;;;5101903;28;20368;-82
2020/12/03 12:34:35;;;;;;;33.13;17.17;;;;;;;;;;5116182;27;20167;-82
2020/12/03 12:37:04;;;;;;;29.67;16.02;;;;;;;;;;5133304;27;20059;-82
2020/12/03 12:39:34;;;;;;;32.25;17.35;;;;;;;;;;5110327;27;20259;-83
2020/12/03 12:42:06;;;;;;;34.33;16.65;;;;;;;;;;5115828;27;20654;-82
2020/12/03 12:44:35;;;;;;;29.50;16.77;;;;;;;;;;5125876;27;20055;-82
2020/12/03 12:47:05;;;;;;;34.40;16.85;;;;;;;;;;5124526;27;20054;-82
2020/12/03 12:49:35;;;;;;;29.55;15.07;;;;;;;;;;5140378;27;20046;-83
2020/12/03 12:52:03;;;;;;;34.15;16.15;;;;;;;;;;5114447;27;20051;-83
2020/12/03 12:54:29;;;;;;;32.60;17.08;;;;;;;;;;5113916;28;20289;-82
2020/12/03 12:57:16;;;;;;;29.58;15.27;;;;;;;;;;5115808;27;20048;-82
2020/12/03 12:59:42;;;;;;;32.75;17.52;;;;;;;;;;5129404;27;20111;-82
2020/12/03 13:02:14;;;;;;;29.65;16.83;;;;;;;;;;5128128;27;20215;-82
2020/12/03 13:04:43;;;;;;;24.70;14.30;;;;;;;;;;5131754;27;20057;-82
2020/12/03 13:07:10;;;;;;;28.10;14.85;;;;;;;;;;5107370;27;20456;-82
2020/12/03 13:09:36;;;;;;;26.73;14.77;;;;;;;;;;5118030;27;20039;-83
2020/12/03 13:12:05;;;;;;;29.92;15.70;;;;;;;;;;5103767;27;20050;-83
2020/12/03 13:14:37;;;;;;;27.77;15.82;;;;;;;;;;5107690;28;20070;-81
2020/12/03 13:17:07;;;;;;;32.17;17.55;;;;;;;;;;5105936;27;20068;-83
2020/12/03 13:19:39;;;;;;;24.90;14.95;;;;;;;;;;5120336;27;20039;-82
2020/12/03 13:22:07;;;;;;;28.10;15.02;;;;;;;;;;5105269;27;20066;-84
2020/12/03 13:24:37;;;;;;;29.60;15.77;;;;;;;;;;5122077;27;20051;-84
2020/12/03 13:27:06;;;;;;;29.63;14.98;;;;;;;;;;5125736;27;20043;-82
2020/12/03 13:29:37;;;;;;;29.83;15.60;;;;;;;;;;5107049;28;20043;-83
2020/12/03 13:32:03;;;;;;;28.15;15.90;;;;;;;;;;5128069;27;20100;-82
2020/12/03 13:34:41;;;;;;;29.33;15.95;;;;;;;;;;5106446;27;20582;-83
2020/12/03 13:37:10;;;;;;;26.15;15.05;;;;;;;;;;5118233;27;20040;-82
2020/12/03 13:39:36;;;;;;;32.13;15.82;;;;;;;;;;5108411;27;20051;-83
2020/12/03 13:42:08;;;;;;;26.48;14.80;;;;;;;;;;5132232;27;20053;-82
2020/12/03 13:44:37;;;;;;;32.90;16.40;;;;;;;;;;5101753;28;20343;-83
2020/12/03 13:47:04;;;;;;;29.55;16.40;;;;;;;;;;5114494;28;20134;-84
2020/12/03 13:49:42;;;;;;;29.55;16.00;;;;;;;;;;5117919;27;20278;-82
2020/12/03 13:52:09;;;;;;;31.05;14.55;;;;;;;;;;5105377;28;20100;-83
2020/12/03 13:54:38;;;;;;;29.60;14.77;;;;;;;;;;5130500;28;20120;-82
2020/12/03 13:57:06;;;;;;;29.30;15.65;;;;;;;;;;5115397;27;20248;-83
2020/12/03 13:59:39;;;;;;;26.95;14.98;;;;;;;;;;5127829;27;20054;-83
2020/12/03 14:02:13;;;;;;;29.90;14.82;;;;;;;;;;5100576;28;20055;-82
2020/12/03 14:04:41;;;;;;;28.98;14.65;;;;;;;;;;5108222;27;20039;-83
2020/12/03 14:07:07;;;;;;;29.38;15.18;;;;;;;;;;5115769;27;20400;-82
2020/12/03 14:09:40;;;;;;;27.98;14.38;;;;;;;;;;5137882;27;20103;-82
2020/12/03 14:12:09;;;;;;;25.10;14.35;;;;;;;;;;5130953;27;20278;-82
2020/12/03 14:14:43;;;;;;;24.38;14.10;;;;;;;;;;5104528;27;20043;-83
2020/12/03 14:17:14;;;;;;;28.55;14.93;;;;;;;;;;5118168;28;20328;-83
2020/12/03 14:19:42;;;;;;;30.20;15.52;;;;;;;;;;5102579;27;20044;-83
2020/12/03 14:22:09;;;;;;;29.42;14.75;;;;;;;;;;5101762;28;20124;-83
2020/12/03 14:24:40;;;;;;;34.17;15.25;;;;;;;;;;5101819;28;20255;-82
2020/12/03 14:27:07;;;;;;;26.23;13.63;;;;;;;;;;5118429;27;20044;-83
2020/12/03 14:29:42;;;;;;;23.40;12.13;;;;;;;;;;5142991;27;20060;-83
2020/12/03 14:32:13;;;;;;;31.65;15.88;;;;;;;;;;5132500;27;20082;-83
2020/12/03 14:34:46;;;;;;;29.40;14.48;;;;;;;;;;5144625;27;20081;-83
2020/12/03 14:37:12;;;;;;;32.22;15.55;;;;;;;;;;5121986;27;20049;-82
2020/12/03 14:39:39;;;;;;;29.92;13.88;;;;;;;;;;5136882;27;20726;-82
2020/12/03 14:42:09;;;;;;;29.27;14.07;;;;;;;;;;5132931;27;20143;-82
2020/12/03 14:44:40;;;;;;;31.58;15.27;;;;;;;;;;5112255;27;20062;-82
2020/12/03 14:47:07;;;;;;;32.13;14.95;;;;;;;;;;5128939;27;20078;-83
2020/12/03 14:49:44;;;;;;;32.92;15.38;;;;;;;;;;5093663;28;20104;-82
2020/12/03 14:52:10;;;;;;;31.77;14.80;;;;;;;;;;5119824;27;20039;-82
2020/12/03 14:54:40;;;;;;;32.30;15.93;;;;;;;;;;5113771;27;20334;-82
2020/12/03 14:57:11;;;;;;;32.38;15.60;;;;;;;;;;5112068;27;20119;-82
2020/12/03 14:59:48;;;;;;;28.55;15.25;;;;;;;;;;5101471;27;20140;-83